sensor_id;sensor_type;location;lat;lon;timestamp;P1;durP1;ratioP1;P2;durP2;ratioP2
4049;SDS011;2039;50.894;6.888;2023-07-20T00:02:13;67.80;;;4.33;;
4049;SDS011;2039;50.894;6.888;2023-07-20T00:04:39;70.27;;;4.07;;
4049;SDS011;2039;50.894;6.888;2023-07-20T00:07:04;70.10;;;4.30;;
4049;SDS011;2039;50.894;6.888;2023-07-20T00:09:30;72.30;;;4.70;;
4049;SDS011;2039;50.894;6.888;2023-07-20T00:11:56;68.47;;;4.30;;
4049;SDS011;2039;50.894;6.888;2023-07-20T00:14:22;67.13;;;4.40;;
4049;SDS011;2039;50.894;6.888;2023-07-20T00:16:49;67.90;;;4.13;;
4049;SDS011;2039;50.894;6.888;2023-07-20T00:19:20;67.07;;;4.20;;
4049;SDS011;2039;50.894;6.888;2023-07-20T00:21:50;67.10;;;5.13;;
4049;SDS011;2039;50.894;6.888;2023-07-20T00:24:15;67.60;;;4.30;;
4049;SDS011;2039;50.894;6.888;2023-07-20T00:26:41;67.20;;;4.73;;
4049;SDS011;2039;50.894;6.888;2023-07-20T00:29:08;68.47;;;4.87;;
4049;SDS011;2039;50.894;6.888;2023-07-20T00:31:34;68.50;;;5.63;;
4049;SDS011;2039;50.894;6.888;2023-07-20T00:34:02;68.60;;;4.87;;
4049;SDS011;2039;50.894;6.888;2023-07-20T00:36:28;68.30;;;5.53;;
4049;SDS011;2039;50.894;6.888;2023-07-20T00:38:54;69.07;;;5.90;;
4049;SDS011;2039;50.894;6.888;2023-07-20T00:41:19;67.20;;;4.80;;
4049;SDS011;2039;50.894;6.888;2023-07-20T00:43:45;69.67;;;5.10;;
4049;SDS011;2039;50.894;6.888;2023-07-20T00:46:11;70.63;;;6.23;;
4049;SDS011;2039;50.894;6.888;2023-07-20T00:48:37;66.50;;;5.00;;
4049;SDS011;2039;50.894;6.888;2023-07-20T00:51:04;68.97;;;5.70;;
4049;SDS011;2039;50.894;6.888;2023-07-20T00:53:30;66.87;;;5.70;;
4049;SDS011;2039;50.894;6.888;2023-07-20T00:55:56;66.87;;;5.80;;
4049;SDS011;2039;50.894;6.888;2023-07-20T00:58:23;68.43;;;5.67;;
4049;SDS011;2039;50.894;6.888;2023-07-20T01:00:49;69.10;;;6.77;;
4049;SDS011;2039;50.894;6.888;2023-07-20T01:03:14;69.23;;;6.60;;
4049;SDS011;2039;50.894;6.888;2023-07-20T01:08:12;67.87;;;7.23;;
4049;SDS011;2039;50.894;6.888;2023-07-20T01:10:44;71.20;;;8.20;;
4049;SDS011;2039;50.894;6.888;2023-07-20T01:13:16;67.20;;;8.37;;
4049;SDS011;2039;50.894;6.888;2023-07-20T01:15:48;71.17;;;8.30;;
4049;SDS011;2039;50.894;6.888;2023-07-20T01:18:16;69.67;;;8.83;;
4049;SDS011;2039;50.894;6.888;2023-07-20T01:20:43;75.90;;;9.30;;
4049;SDS011;2039;50.894;6.888;2023-07-20T01:31:30;69.77;;;11.80;;
4049;SDS011;2039;50.894;6.888;2023-07-20T01:34:00;70.53;;;13.73;;
4049;SDS011;2039;50.894;6.888;2023-07-20T01:36:27;72.00;;;14.87;;
4049;SDS011;2039;50.894;6.888;2023-07-20T01:38:56;72.40;;;16.67;;
4049;SDS011;2039;50.894;6.888;2023-07-20T01:41:22;71.23;;;16.47;;
4049;SDS011;2039;50.894;6.888;2023-07-20T01:43:48;74.17;;;18.40;;
4049;SDS011;2039;50.894;6.888;2023-07-20T01:46:14;74.23;;;23.90;;
4049;SDS011;2039;50.894;6.888;2023-07-20T01:48:40;75.17;;;21.77;;
4049;SDS011;2039;50.894;6.888;2023-07-20T01:51:06;77.63;;;24.47;;
4049;SDS011;2039;50.894;6.888;2023-07-20T01:53:31;76.30;;;25.63;;
4049;SDS011;2039;50.894;6.888;2023-07-20T01:55:57;75.20;;;24.23;;
4049;SDS011;2039;50.894;6.888;2023-07-20T01:58:23;78.67;;;29.90;;
4049;SDS011;2039;50.894;6.888;2023-07-20T02:00:49;76.77;;;28.00;;
4049;SDS011;2039;50.894;6.888;2023-07-20T02:03:15;76.27;;;28.90;;
4049;SDS011;2039;50.894;6.888;2023-07-20T02:05:44;75.03;;;23.43;;
4049;SDS011;2039;50.894;6.888;2023-07-20T02:08:13;76.40;;;29.43;;
4049;SDS011;2039;50.894;6.888;2023-07-20T02:10:38;76.37;;;27.90;;
4049;SDS011;2039;50.894;6.888;2023-07-20T02:13:04;80.10;;;29.77;;
4049;SDS011;2039;50.894;6.888;2023-07-20T02:15:30;78.77;;;35.27;;
4049;SDS011;2039;50.894;6.888;2023-07-20T02:17:55;76.70;;;29.47;;
4049;SDS011;2039;50.894;6.888;2023-07-20T02:20:21;79.20;;;33.03;;
4049;SDS011;2039;50.894;6.888;2023-07-20T02:22:47;77.63;;;32.07;;
4049;SDS011;2039;50.894;6.888;2023-07-20T02:25:12;77.50;;;32.33;;
4049;SDS011;2039;50.894;6.888;2023-07-20T02:27:38;77.70;;;32.10;;
4049;SDS011;2039;50.894;6.888;2023-07-20T02:30:04;79.90;;;34.57;;
4049;SDS011;2039;50.894;6.888;2023-07-20T02:32:30;77.90;;;31.60;;
4049;SDS011;2039;50.894;6.888;2023-07-20T02:34:57;78.00;;;30.10;;
4049;SDS011;2039;50.894;6.888;2023-07-20T02:37:23;78.00;;;34.40;;
4049;SDS011;2039;50.894;6.888;2023-07-20T02:39:49;80.20;;;30.40;;
4049;SDS011;2039;50.894;6.888;2023-07-20T02:42:15;78.07;;;32.43;;
4049;SDS011;2039;50.894;6.888;2023-07-20T02:44:41;78.20;;;33.70;;
4049;SDS011;2039;50.894;6.888;2023-07-20T02:47:09;83.70;;;33.60;;
4049;SDS011;2039;50.894;6.888;2023-07-20T02:49:35;76.47;;;30.07;;
4049;SDS011;2039;50.894;6.888;2023-07-20T02:52:01;76.87;;;32.23;;
4049;SDS011;2039;50.894;6.888;2023-07-20T02:54:28;76.67;;;29.87;;
4049;SDS011;2039;50.894;6.888;2023-07-20T02:56:55;82.80;;;31.47;;
4049;SDS011;2039;50.894;6.888;2023-07-20T02:59:20;77.40;;;28.00;;
4049;SDS011;2039;50.894;6.888;2023-07-20T03:01:46;81.57;;;30.97;;
4049;SDS011;2039;50.894;6.888;2023-07-20T03:04:12;79.10;;;30.30;;
4049;SDS011;2039;50.894;6.888;2023-07-20T03:06:37;77.10;;;25.47;;
4049;SDS011;2039;50.894;6.888;2023-07-20T03:09:03;78.30;;;27.70;;
4049;SDS011;2039;50.894;6.888;2023-07-20T03:11:29;75.07;;;25.97;;
4049;SDS011;2039;50.894;6.888;2023-07-20T03:13:55;78.70;;;24.60;;
4049;SDS011;2039;50.894;6.888;2023-07-20T03:16:21;72.80;;;22.33;;
4049;SDS011;2039;50.894;6.888;2023-07-20T03:18:48;73.73;;;20.17;;
4049;SDS011;2039;50.894;6.888;2023-07-20T03:21:14;78.20;;;26.67;;
4049;SDS011;2039;50.894;6.888;2023-07-20T03:23:42;75.30;;;23.07;;
4049;SDS011;2039;50.894;6.888;2023-07-20T03:26:08;79.57;;;25.97;;
4049;SDS011;2039;50.894;6.888;2023-07-20T03:28:37;74.90;;;24.67;;
4049;SDS011;2039;50.894;6.888;2023-07-20T03:31:04;76.97;;;28.07;;
4049;SDS011;2039;50.894;6.888;2023-07-20T03:33:30;75.60;;;24.93;;
4049;SDS011;2039;50.894;6.888;2023-07-20T03:35:56;80.10;;;30.27;;
4049;SDS011;2039;50.894;6.888;2023-07-20T03:38:24;82.73;;;31.13;;
4049;SDS011;2039;50.894;6.888;2023-07-20T03:43:20;76.83;;;31.20;;
4049;SDS011;2039;50.894;6.888;2023-07-20T03:45:46;75.50;;;29.80;;
4049;SDS011;2039;50.894;6.888;2023-07-20T03:48:13;76.17;;;27.30;;
4049;SDS011;2039;50.894;6.888;2023-07-20T03:50:40;76.33;;;25.93;;
4049;SDS011;2039;50.894;6.888;2023-07-20T03:53:06;77.10;;;29.00;;
4049;SDS011;2039;50.894;6.888;2023-07-20T03:55:32;73.77;;;24.83;;
4049;SDS011;2039;50.894;6.888;2023-07-20T03:57:57;75.70;;;29.63;;
4049;SDS011;2039;50.894;6.888;2023-07-20T04:00:23;74.80;;;28.60;;
4049;SDS011;2039;50.894;6.888;2023-07-20T04:02:49;79.50;;;32.33;;
4049;SDS011;2039;50.894;6.888;2023-07-20T04:05:15;77.03;;;28.73;;
4049;SDS011;2039;50.894;6.888;2023-07-20T04:07:41;76.67;;;26.40;;
4049;SDS011;2039;50.894;6.888;2023-07-20T04:10:07;81.03;;;32.57;;
4049;SDS011;2039;50.894;6.888;2023-07-20T04:12:33;76.13;;;27.47;;
4049;SDS011;2039;50.894;6.888;2023-07-20T04:14:59;76.00;;;27.27;;
4049;SDS011;2039;50.894;6.888;2023-07-20T04:17:26;76.50;;;29.90;;
4049;SDS011;2039;50.894;6.888;2023-07-20T04:19:52;75.60;;;25.63;;
4049;SDS011;2039;50.894;6.888;2023-07-20T04:22:18;73.37;;;23.63;;
4049;SDS011;2039;50.894;6.888;2023-07-20T04:24:43;77.97;;;28.93;;
4049;SDS011;2039;50.894;6.888;2023-07-20T04:27:09;76.67;;;28.53;;
4049;SDS011;2039;50.894;6.888;2023-07-20T04:29:34;76.67;;;27.00;;
4049;SDS011;2039;50.894;6.888;2023-07-20T04:32:00;77.93;;;29.17;;
4049;SDS011;2039;50.894;6.888;2023-07-20T04:34:26;76.03;;;26.87;;
4049;SDS011;2039;50.894;6.888;2023-07-20T04:36:51;77.70;;;28.93;;
4049;SDS011;2039;50.894;6.888;2023-07-20T04:39:18;82.20;;;33.33;;
4049;SDS011;2039;50.894;6.888;2023-07-20T04:41:43;79.10;;;31.30;;
4049;SDS011;2039;50.894;6.888;2023-07-20T04:44:09;77.63;;;32.37;;
4049;SDS011;2039;50.894;6.888;2023-07-20T04:46:35;77.93;;;33.10;;
4049;SDS011;2039;50.894;6.888;2023-07-20T04:49:00;80.40;;;37.30;;
4049;SDS011;2039;50.894;6.888;2023-07-20T04:51:26;76.37;;;31.97;;
4049;SDS011;2039;50.894;6.888;2023-07-20T04:53:55;78.70;;;32.83;;
4049;SDS011;2039;50.894;6.888;2023-07-20T04:56:21;76.17;;;29.47;;
4049;SDS011;2039;50.894;6.888;2023-07-20T04:58:48;81.40;;;37.43;;
4049;SDS011;2039;50.894;6.888;2023-07-20T05:01:14;79.77;;;32.43;;
4049;SDS011;2039;50.894;6.888;2023-07-20T05:03:39;76.80;;;33.53;;
4049;SDS011;2039;50.894;6.888;2023-07-20T05:06:05;80.00;;;32.77;;
4049;SDS011;2039;50.894;6.888;2023-07-20T05:08:31;75.60;;;31.20;;
4049;SDS011;2039;50.894;6.888;2023-07-20T05:10:56;80.07;;;37.90;;
4049;SDS011;2039;50.894;6.888;2023-07-20T05:13:22;78.90;;;33.37;;
4049;SDS011;2039;50.894;6.888;2023-07-20T05:15:50;79.77;;;31.97;;
4049;SDS011;2039;50.894;6.888;2023-07-20T05:18:19;77.20;;;34.60;;
4049;SDS011;2039;50.894;6.888;2023-07-20T05:20:46;80.33;;;31.20;;
4049;SDS011;2039;50.894;6.888;2023-07-20T05:23:12;80.47;;;32.13;;
4049;SDS011;2039;50.894;6.888;2023-07-20T05:25:38;80.83;;;34.67;;
4049;SDS011;2039;50.894;6.888;2023-07-20T05:28:04;79.57;;;33.03;;
4049;SDS011;2039;50.894;6.888;2023-07-20T05:30:29;76.47;;;29.83;;
4049;SDS011;2039;50.894;6.888;2023-07-20T05:32:55;77.33;;;28.03;;
4049;SDS011;2039;50.894;6.888;2023-07-20T05:35:21;81.03;;;34.33;;
4049;SDS011;2039;50.894;6.888;2023-07-20T05:37:47;77.17;;;30.57;;
4049;SDS011;2039;50.894;6.888;2023-07-20T05:40:14;78.73;;;28.57;;
4049;SDS011;2039;50.894;6.888;2023-07-20T05:42:43;79.50;;;31.13;;
4049;SDS011;2039;50.894;6.888;2023-07-20T05:45:17;77.23;;;27.97;;
4049;SDS011;2039;50.894;6.888;2023-07-20T05:47:43;91.83;;;36.30;;
4049;SDS011;2039;50.894;6.888;2023-07-20T05:50:09;77.43;;;27.83;;
4049;SDS011;2039;50.894;6.888;2023-07-20T05:52:35;78.43;;;32.63;;
4049;SDS011;2039;50.894;6.888;2023-07-20T05:55:03;80.10;;;31.67;;
4049;SDS011;2039;50.894;6.888;2023-07-20T05:57:30;79.27;;;30.63;;
4049;SDS011;2039;50.894;6.888;2023-07-20T05:59:55;83.17;;;30.83;;
4049;SDS011;2039;50.894;6.888;2023-07-20T06:02:21;75.33;;;26.60;;
4049;SDS011;2039;50.894;6.888;2023-07-20T06:04:47;82.77;;;33.63;;
4049;SDS011;2039;50.894;6.888;2023-07-20T06:07:12;78.37;;;30.83;;
4049;SDS011;2039;50.894;6.888;2023-07-20T06:09:39;81.57;;;29.73;;
4049;SDS011;2039;50.894;6.888;2023-07-20T06:12:08;76.93;;;27.17;;
4049;SDS011;2039;50.894;6.888;2023-07-20T06:14:34;80.83;;;37.47;;
4049;SDS011;2039;50.894;6.888;2023-07-20T06:17:00;78.17;;;30.80;;
4049;SDS011;2039;50.894;6.888;2023-07-20T06:19:25;82.20;;;36.20;;
4049;SDS011;2039;50.894;6.888;2023-07-20T06:21:51;80.27;;;36.40;;
4049;SDS011;2039;50.894;6.888;2023-07-20T06:24:17;80.07;;;35.43;;
4049;SDS011;2039;50.894;6.888;2023-07-20T06:26:43;78.57;;;32.00;;
4049;SDS011;2039;50.894;6.888;2023-07-20T06:29:09;87.53;;;35.43;;
4049;SDS011;2039;50.894;6.888;2023-07-20T06:31:35;83.33;;;36.13;;
4049;SDS011;2039;50.894;6.888;2023-07-20T06:34:01;80.87;;;34.93;;
4049;SDS011;2039;50.894;6.888;2023-07-20T06:36:27;82.63;;;37.53;;
4049;SDS011;2039;50.894;6.888;2023-07-20T06:38:53;79.73;;;34.93;;
4049;SDS011;2039;50.894;6.888;2023-07-20T06:41:20;81.50;;;34.77;;
4049;SDS011;2039;50.894;6.888;2023-07-20T06:43:45;80.63;;;26.30;;
4049;SDS011;2039;50.894;6.888;2023-07-20T06:46:12;76.00;;;20.57;;
4049;SDS011;2039;50.894;6.888;2023-07-20T06:48:38;80.73;;;22.37;;
4049;SDS011;2039;50.894;6.888;2023-07-20T06:51:03;73.60;;;16.60;;
4049;SDS011;2039;50.894;6.888;2023-07-20T06:53:30;72.47;;;15.07;;
4049;SDS011;2039;50.894;6.888;2023-07-20T06:55:55;74.97;;;17.20;;
4049;SDS011;2039;50.894;6.888;2023-07-20T06:58:24;76.30;;;16.13;;
4049;SDS011;2039;50.894;6.888;2023-07-20T07:00:50;75.10;;;13.70;;
4049;SDS011;2039;50.894;6.888;2023-07-20T07:03:16;74.67;;;11.83;;
4049;SDS011;2039;50.894;6.888;2023-07-20T07:05:43;71.57;;;12.60;;
4049;SDS011;2039;50.894;6.888;2023-07-20T07:08:10;72.90;;;14.03;;
4049;SDS011;2039;50.894;6.888;2023-07-20T07:10:36;73.40;;;11.50;;
4049;SDS011;2039;50.894;6.888;2023-07-20T07:13:02;73.90;;;11.00;;
4049;SDS011;2039;50.894;6.888;2023-07-20T07:15:28;78.83;;;15.23;;
4049;SDS011;2039;50.894;6.888;2023-07-20T07:17:54;73.40;;;12.90;;
4049;SDS011;2039;50.894;6.888;2023-07-20T07:20:20;72.47;;;11.90;;
4049;SDS011;2039;50.894;6.888;2023-07-20T07:22:46;70.80;;;10.83;;
4049;SDS011;2039;50.894;6.888;2023-07-20T07:25:13;72.37;;;12.27;;
4049;SDS011;2039;50.894;6.888;2023-07-20T07:27:39;72.00;;;11.83;;
4049;SDS011;2039;50.894;6.888;2023-07-20T07:30:05;69.13;;;9.83;;
4049;SDS011;2039;50.894;6.888;2023-07-20T07:32:31;69.40;;;9.63;;
4049;SDS011;2039;50.894;6.888;2023-07-20T07:34:57;75.10;;;11.17;;
4049;SDS011;2039;50.894;6.888;2023-07-20T07:37:25;68.80;;;9.53;;
4049;SDS011;2039;50.894;6.888;2023-07-20T07:39:51;73.20;;;9.03;;
4049;SDS011;2039;50.894;6.888;2023-07-20T07:42:17;70.40;;;10.73;;
4049;SDS011;2039;50.894;6.888;2023-07-20T07:44:43;72.80;;;10.73;;
4049;SDS011;2039;50.894;6.888;2023-07-20T07:47:09;71.00;;;10.97;;
4049;SDS011;2039;50.894;6.888;2023-07-20T07:49:35;72.47;;;10.70;;
4049;SDS011;2039;50.894;6.888;2023-07-20T07:52:01;72.27;;;10.17;;
4049;SDS011;2039;50.894;6.888;2023-07-20T07:54:29;71.27;;;10.33;;
4049;SDS011;2039;50.894;6.888;2023-07-20T07:56:55;70.50;;;9.77;;
4049;SDS011;2039;50.894;6.888;2023-07-20T07:59:21;70.17;;;9.63;;
4049;SDS011;2039;50.894;6.888;2023-07-20T08:01:47;69.77;;;7.43;;
4049;SDS011;2039;50.894;6.888;2023-07-20T08:04:13;69.67;;;7.30;;
4049;SDS011;2039;50.894;6.888;2023-07-20T08:06:39;71.13;;;7.30;;
4049;SDS011;2039;50.894;6.888;2023-07-20T08:09:05;75.17;;;7.80;;
4049;SDS011;2039;50.894;6.888;2023-07-20T08:11:30;69.40;;;8.20;;
4049;SDS011;2039;50.894;6.888;2023-07-20T08:13:59;70.47;;;8.60;;
4049;SDS011;2039;50.894;6.888;2023-07-20T08:16:25;68.70;;;6.53;;
4049;SDS011;2039;50.894;6.888;2023-07-20T08:18:51;68.70;;;6.13;;
4049;SDS011;2039;50.894;6.888;2023-07-20T08:21:17;69.80;;;7.43;;
4049;SDS011;2039;50.894;6.888;2023-07-20T08:23:42;75.63;;;7.60;;
4049;SDS011;2039;50.894;6.888;2023-07-20T08:26:08;70.87;;;7.70;;
4049;SDS011;2039;50.894;6.888;2023-07-20T08:28:34;68.70;;;6.23;;
4049;SDS011;2039;50.894;6.888;2023-07-20T08:31:00;73.60;;;6.70;;
4049;SDS011;2039;50.894;6.888;2023-07-20T08:33:26;71.40;;;6.10;;
4049;SDS011;2039;50.894;6.888;2023-07-20T08:35:54;68.10;;;5.17;;
4049;SDS011;2039;50.894;6.888;2023-07-20T08:38:21;67.37;;;4.70;;
4049;SDS011;2039;50.894;6.888;2023-07-20T08:40:47;69.20;;;4.83;;
4049;SDS011;2039;50.894;6.888;2023-07-20T08:43:13;69.10;;;5.43;;
4049;SDS011;2039;50.894;6.888;2023-07-20T08:45:41;68.97;;;6.10;;
4049;SDS011;2039;50.894;6.888;2023-07-20T08:48:12;71.57;;;5.37;;
4049;SDS011;2039;50.894;6.888;2023-07-20T08:50:38;67.57;;;4.60;;
4049;SDS011;2039;50.894;6.888;2023-07-20T08:53:04;68.67;;;4.87;;
4049;SDS011;2039;50.894;6.888;2023-07-20T08:55:32;69.43;;;4.10;;
4049;SDS011;2039;50.894;6.888;2023-07-20T08:57:58;70.00;;;4.70;;
4049;SDS011;2039;50.894;6.888;2023-07-20T09:00:26;65.90;;;3.50;;
4049;SDS011;2039;50.894;6.888;2023-07-20T09:02:57;70.00;;;3.80;;
4049;SDS011;2039;50.894;6.888;2023-07-20T09:05:25;68.10;;;3.70;;
4049;SDS011;2039;50.894;6.888;2023-07-20T09:07:51;69.10;;;3.70;;
4049;SDS011;2039;50.894;6.888;2023-07-20T09:10:19;68.13;;;4.13;;
4049;SDS011;2039;50.894;6.888;2023-07-20T09:12:46;68.20;;;4.50;;
4049;SDS011;2039;50.894;6.888;2023-07-20T09:15:11;66.67;;;4.03;;
4049;SDS011;2039;50.894;6.888;2023-07-20T09:17:37;68.30;;;4.30;;
4049;SDS011;2039;50.894;6.888;2023-07-20T09:20:04;67.40;;;3.87;;
4049;SDS011;2039;50.894;6.888;2023-07-20T09:22:33;68.07;;;4.00;;
4049;SDS011;2039;50.894;6.888;2023-07-20T09:24:59;68.27;;;4.00;;
4049;SDS011;2039;50.894;6.888;2023-07-20T09:27:34;71.13;;;4.60;;
4049;SDS011;2039;50.894;6.888;2023-07-20T09:30:02;68.40;;;3.63;;
4049;SDS011;2039;50.894;6.888;2023-07-20T09:32:28;67.43;;;3.90;;
4049;SDS011;2039;50.894;6.888;2023-07-20T09:34:54;67.77;;;4.00;;
4049;SDS011;2039;50.894;6.888;2023-07-20T09:37:23;67.07;;;3.83;;
4049;SDS011;2039;50.894;6.888;2023-07-20T09:39:51;69.77;;;4.60;;
4049;SDS011;2039;50.894;6.888;2023-07-20T09:42:18;69.47;;;3.90;;
4049;SDS011;2039;50.894;6.888;2023-07-20T09:44:46;67.03;;;3.13;;
4049;SDS011;2039;50.894;6.888;2023-07-20T09:47:13;66.47;;;3.23;;
4049;SDS011;2039;50.894;6.888;2023-07-20T09:49:49;69.47;;;3.27;;
4049;SDS011;2039;50.894;6.888;2023-07-20T09:52:14;66.70;;;2.90;;
4049;SDS011;2039;50.894;6.888;2023-07-20T09:54:42;67.47;;;3.87;;
4049;SDS011;2039;50.894;6.888;2023-07-20T09:57:11;68.70;;;4.00;;
4049;SDS011;2039;50.894;6.888;2023-07-20T09:59:38;70.10;;;3.30;;
4049;SDS011;2039;50.894;6.888;2023-07-20T10:02:04;66.57;;;3.20;;
4049;SDS011;2039;50.894;6.888;2023-07-20T10:04:41;67.87;;;3.20;;
4049;SDS011;2039;50.894;6.888;2023-07-20T10:07:09;67.13;;;2.90;;
4049;SDS011;2039;50.894;6.888;2023-07-20T10:09:37;67.37;;;2.70;;
4049;SDS011;2039;50.894;6.888;2023-07-20T10:12:05;67.07;;;3.33;;
4049;SDS011;2039;50.894;6.888;2023-07-20T10:14:34;67.40;;;3.70;;
4049;SDS011;2039;50.894;6.888;2023-07-20T10:17:05;66.47;;;3.00;;
4049;SDS011;2039;50.894;6.888;2023-07-20T10:22:14;67.10;;;3.30;;
4049;SDS011;2039;50.894;6.888;2023-07-20T10:24:44;67.20;;;3.60;;
4049;SDS011;2039;50.894;6.888;2023-07-20T10:27:12;66.90;;;3.00;;
4049;SDS011;2039;50.894;6.888;2023-07-20T10:29:39;67.17;;;3.67;;
4049;SDS011;2039;50.894;6.888;2023-07-20T10:32:05;66.90;;;3.50;;
4049;SDS011;2039;50.894;6.888;2023-07-20T10:34:32;67.43;;;3.27;;
4049;SDS011;2039;50.894;6.888;2023-07-20T10:36:58;66.60;;;2.90;;
4049;SDS011;2039;50.894;6.888;2023-07-20T10:39:24;68.13;;;3.00;;
4049;SDS011;2039;50.894;6.888;2023-07-20T10:42:02;68.23;;;3.20;;
4049;SDS011;2039;50.894;6.888;2023-07-20T10:44:38;67.20;;;3.37;;
4049;SDS011;2039;50.894;6.888;2023-07-20T10:47:11;67.67;;;3.20;;
4049;SDS011;2039;50.894;6.888;2023-07-20T10:49:57;68.27;;;2.70;;
4049;SDS011;2039;50.894;6.888;2023-07-20T10:52:24;72.73;;;3.10;;
4049;SDS011;2039;50.894;6.888;2023-07-20T10:54:50;67.00;;;3.10;;
4049;SDS011;2039;50.894;6.888;2023-07-20T10:57:22;68.93;;;3.60;;
4049;SDS011;2039;50.894;6.888;2023-07-20T10:59:49;69.30;;;2.83;;
4049;SDS011;2039;50.894;6.888;2023-07-20T11:02:17;67.80;;;3.13;;
4049;SDS011;2039;50.894;6.888;2023-07-20T11:04:45;66.97;;;3.33;;
4049;SDS011;2039;50.894;6.888;2023-07-20T11:07:16;67.07;;;2.83;;
4049;SDS011;2039;50.894;6.888;2023-07-20T11:09:45;68.70;;;2.80;;
4049;SDS011;2039;50.894;6.888;2023-07-20T11:12:12;67.77;;;3.27;;
4049;SDS011;2039;50.894;6.888;2023-07-20T11:14:43;66.77;;;3.47;;
4049;SDS011;2039;50.894;6.888;2023-07-20T11:17:19;67.43;;;2.97;;
4049;SDS011;2039;50.894;6.888;2023-07-20T11:19:50;66.50;;;2.90;;
4049;SDS011;2039;50.894;6.888;2023-07-20T11:22:21;68.50;;;4.47;;
4049;SDS011;2039;50.894;6.888;2023-07-20T11:24:47;67.10;;;2.43;;
4049;SDS011;2039;50.894;6.888;2023-07-20T11:27:14;67.77;;;2.90;;
4049;SDS011;2039;50.894;6.888;2023-07-20T11:29:40;68.03;;;2.87;;
4049;SDS011;2039;50.894;6.888;2023-07-20T11:32:06;66.90;;;2.90;;
4049;SDS011;2039;50.894;6.888;2023-07-20T11:34:33;66.20;;;2.47;;
4049;SDS011;2039;50.894;6.888;2023-07-20T11:37:00;66.30;;;2.80;;
4049;SDS011;2039;50.894;6.888;2023-07-20T11:39:27;66.90;;;2.90;;
4049;SDS011;2039;50.894;6.888;2023-07-20T11:41:57;65.87;;;2.40;;
4049;SDS011;2039;50.894;6.888;2023-07-20T11:44:24;67.93;;;3.50;;
4049;SDS011;2039;50.894;6.888;2023-07-20T11:47:09;67.40;;;3.07;;
4049;SDS011;2039;50.894;6.888;2023-07-20T11:49:37;66.17;;;2.90;;
4049;SDS011;2039;50.894;6.888;2023-07-20T11:52:08;66.67;;;3.10;;
4049;SDS011;2039;50.894;6.888;2023-07-20T11:54:35;67.17;;;3.27;;
4049;SDS011;2039;50.894;6.888;2023-07-20T11:57:03;68.20;;;3.10;;
4049;SDS011;2039;50.894;6.888;2023-07-20T11:59:30;70.87;;;3.80;;
4049;SDS011;2039;50.894;6.888;2023-07-20T12:01:56;67.20;;;2.60;;
4049;SDS011;2039;50.894;6.888;2023-07-20T12:04:33;67.17;;;2.93;;
4049;SDS011;2039;50.894;6.888;2023-07-20T12:07:01;71.47;;;3.07;;
4049;SDS011;2039;50.894;6.888;2023-07-20T12:09:27;67.10;;;2.70;;
4049;SDS011;2039;50.894;6.888;2023-07-20T12:11:58;71.67;;;3.33;;
4049;SDS011;2039;50.894;6.888;2023-07-20T12:14:24;68.90;;;2.80;;
4049;SDS011;2039;50.894;6.888;2023-07-20T12:16:53;67.80;;;3.10;;
4049;SDS011;2039;50.894;6.888;2023-07-20T12:19:20;66.87;;;2.97;;
4049;SDS011;2039;50.894;6.888;2023-07-20T12:21:46;67.37;;;3.17;;
4049;SDS011;2039;50.894;6.888;2023-07-20T12:24:11;66.50;;;3.00;;
4049;SDS011;2039;50.894;6.888;2023-07-20T12:26:42;66.17;;;2.60;;
4049;SDS011;2039;50.894;6.888;2023-07-20T12:29:08;66.70;;;3.07;;
4049;SDS011;2039;50.894;6.888;2023-07-20T12:31:36;67.10;;;3.03;;
4049;SDS011;2039;50.894;6.888;2023-07-20T12:34:05;66.97;;;2.80;;
4049;SDS011;2039;50.894;6.888;2023-07-20T12:36:32;67.30;;;3.30;;
4049;SDS011;2039;50.894;6.888;2023-07-20T12:39:01;66.53;;;2.40;;
4049;SDS011;2039;50.894;6.888;2023-07-20T12:41:28;66.77;;;3.40;;
4049;SDS011;2039;50.894;6.888;2023-07-20T12:44:23;67.50;;;3.50;;
4049;SDS011;2039;50.894;6.888;2023-07-20T12:47:00;68.77;;;3.10;;
4049;SDS011;2039;50.894;6.888;2023-07-20T12:49:27;70.30;;;3.00;;
4049;SDS011;2039;50.894;6.888;2023-07-20T12:52:02;73.07;;;3.40;;
4049;SDS011;2039;50.894;6.888;2023-07-20T12:54:30;67.43;;;3.30;;
4049;SDS011;2039;50.894;6.888;2023-07-20T12:56:56;67.63;;;3.37;;
4049;SDS011;2039;50.894;6.888;2023-07-20T12:59:22;66.77;;;3.47;;
4049;SDS011;2039;50.894;6.888;2023-07-20T13:01:47;66.67;;;3.43;;
4049;SDS011;2039;50.894;6.888;2023-07-20T13:04:13;67.50;;;3.33;;
4049;SDS011;2039;50.894;6.888;2023-07-20T13:06:39;66.37;;;3.07;;
4049;SDS011;2039;50.894;6.888;2023-07-20T13:09:06;68.73;;;3.73;;
4049;SDS011;2039;50.894;6.888;2023-07-20T13:11:32;66.30;;;3.73;;
4049;SDS011;2039;50.894;6.888;2023-07-20T13:13:57;67.50;;;3.13;;
4049;SDS011;2039;50.894;6.888;2023-07-20T13:16:23;68.23;;;4.13;;
4049;SDS011;2039;50.894;6.888;2023-07-20T13:18:49;67.30;;;3.37;;
4049;SDS011;2039;50.894;6.888;2023-07-20T13:21:14;66.90;;;3.20;;
4049;SDS011;2039;50.894;6.888;2023-07-20T13:23:40;66.97;;;3.33;;
4049;SDS011;2039;50.894;6.888;2023-07-20T13:26:06;67.53;;;4.33;;
4049;SDS011;2039;50.894;6.888;2023-07-20T13:28:33;66.70;;;3.83;;
4049;SDS011;2039;50.894;6.888;2023-07-20T13:30:58;70.63;;;3.40;;
4049;SDS011;2039;50.894;6.888;2023-07-20T13:33:24;66.60;;;3.37;;
4049;SDS011;2039;50.894;6.888;2023-07-20T13:35:50;68.47;;;3.67;;
4049;SDS011;2039;50.894;6.888;2023-07-20T13:38:15;67.70;;;3.20;;
4049;SDS011;2039;50.894;6.888;2023-07-20T13:40:41;66.47;;;3.53;;
4049;SDS011;2039;50.894;6.888;2023-07-20T13:43:07;67.33;;;3.93;;
4049;SDS011;2039;50.894;6.888;2023-07-20T13:45:33;66.53;;;3.40;;
4049;SDS011;2039;50.894;6.888;2023-07-20T13:47:58;66.87;;;3.47;;
4049;SDS011;2039;50.894;6.888;2023-07-20T13:50:24;73.37;;;3.80;;
4049;SDS011;2039;50.894;6.888;2023-07-20T13:52:50;67.60;;;3.30;;
4049;SDS011;2039;50.894;6.888;2023-07-20T13:55:15;69.60;;;3.77;;
4049;SDS011;2039;50.894;6.888;2023-07-20T13:57:41;67.07;;;3.03;;
4049;SDS011;2039;50.894;6.888;2023-07-20T14:00:07;66.90;;;3.20;;
4049;SDS011;2039;50.894;6.888;2023-07-20T14:02:36;66.90;;;3.50;;
4049;SDS011;2039;50.894;6.888;2023-07-20T14:05:02;66.67;;;3.20;;
4049;SDS011;2039;50.894;6.888;2023-07-20T14:07:27;68.00;;;3.77;;
4049;SDS011;2039;50.894;6.888;2023-07-20T14:09:53;67.47;;;3.77;;
4049;SDS011;2039;50.894;6.888;2023-07-20T14:12:19;67.60;;;3.50;;
4049;SDS011;2039;50.894;6.888;2023-07-20T14:14:45;67.00;;;3.57;;
4049;SDS011;2039;50.894;6.888;2023-07-20T14:17:10;68.00;;;4.07;;
4049;SDS011;2039;50.894;6.888;2023-07-20T14:19:37;68.40;;;4.80;;
4049;SDS011;2039;50.894;6.888;2023-07-20T14:22:03;67.33;;;3.97;;
4049;SDS011;2039;50.894;6.888;2023-07-20T14:24:29;67.93;;;4.57;;
4049;SDS011;2039;50.894;6.888;2023-07-20T14:26:55;67.57;;;4.03;;
4049;SDS011;2039;50.894;6.888;2023-07-20T14:29:21;70.37;;;4.10;;
4049;SDS011;2039;50.894;6.888;2023-07-20T14:31:46;69.60;;;4.80;;
4049;SDS011;2039;50.894;6.888;2023-07-20T14:34:18;71.47;;;4.30;;
4049;SDS011;2039;50.894;6.888;2023-07-20T14:36:44;69.10;;;4.80;;
4049;SDS011;2039;50.894;6.888;2023-07-20T14:39:10;68.73;;;3.77;;
4049;SDS011;2039;50.894;6.888;2023-07-20T14:41:36;68.37;;;3.80;;
4049;SDS011;2039;50.894;6.888;2023-07-20T14:44:02;67.07;;;2.70;;
4049;SDS011;2039;50.894;6.888;2023-07-20T14:46:28;66.73;;;2.57;;
4049;SDS011;2039;50.894;6.888;2023-07-20T14:48:56;67.17;;;2.80;;
4049;SDS011;2039;50.894;6.888;2023-07-20T14:51:22;69.97;;;4.13;;
4049;SDS011;2039;50.894;6.888;2023-07-20T14:53:50;67.37;;;3.17;;
4049;SDS011;2039;50.894;6.888;2023-07-20T14:56:16;68.60;;;3.33;;
4049;SDS011;2039;50.894;6.888;2023-07-20T14:58:42;66.77;;;2.60;;
4049;SDS011;2039;50.894;6.888;2023-07-20T15:01:07;67.10;;;3.00;;
4049;SDS011;2039;50.894;6.888;2023-07-20T15:03:36;67.30;;;2.70;;
4049;SDS011;2039;50.894;6.888;2023-07-20T15:06:01;66.47;;;2.50;;
4049;SDS011;2039;50.894;6.888;2023-07-20T15:08:27;66.90;;;2.57;;
4049;SDS011;2039;50.894;6.888;2023-07-20T15:10:53;68.27;;;2.80;;